createdAt,value
2023-03-29T00:00:35.758Z,100.00
2023-03-29T00:03:04.890Z,100.00
2023-03-29T00:05:34.992Z,100.00
2023-03-29T00:08:04.121Z,100.00
2023-03-29T00:10:33.502Z,100.00
2023-03-29T00:13:05.382Z,100.00
2023-03-29T00:15:33.857Z,100.00
2023-03-29T00:18:02.045Z,100.00
2023-03-29T00:20:30.607Z,100.00
2023-03-29T00:22:58.830Z,100.00
2023-03-29T00:25:27.621Z,100.00
2023-03-29T00:27:55.904Z,100.00
2023-03-29T00:30:25.546Z,100.00
2023-03-29T00:32:55.230Z,100.00
2023-03-29T00:35:23.398Z,100.00
2023-03-29T00:37:52.914Z,100.00
2023-03-29T00:40:21.470Z,100.00
2023-03-29T00:42:49.748Z,100.00
2023-03-29T00:45:22.178Z,100.00
2023-03-29T00:47:53.235Z,100.00
2023-03-29T00:50:25.602Z,100.00
2023-03-29T00:52:55.759Z,100.00
2023-03-29T00:55:25.299Z,100.00
2023-03-29T00:57:55.607Z,100.00
2023-03-29T01:00:27.147Z,100.00
2023-03-29T01:02:59.526Z,100.00
2023-03-29T01:05:31.892Z,100.00
2023-03-29T01:08:02.058Z,100.00
2023-03-29T01:10:33.764Z,100.00
2023-03-29T01:13:04.610Z,100.00
2023-03-29T01:15:34.064Z,100.00
2023-03-29T01:18:03.755Z,100.00
2023-03-29T01:20:43.398Z,100.00
2023-03-29T01:23:21.181Z,100.00
2023-03-29T01:25:55.272Z,100.00
2023-03-29T01:28:28.497Z,100.00
2023-03-29T01:31:00.584Z,100.00
2023-03-29T01:33:32.503Z,100.00
2023-03-29T01:36:03.710Z,99.83
2023-03-29T01:38:35.822Z,99.38
2023-03-29T01:41:04.586Z,99.68
2023-03-29T01:43:37.146Z,100.00
2023-03-29T01:46:08.537Z,99.19
2023-03-29T01:48:42.279Z,98.82
2023-03-29T01:51:13.685Z,98.64
2023-03-29T01:53:45.038Z,98.16
2023-03-29T01:56:17.391Z,96.38
2023-03-29T01:58:49.829Z,95.17
2023-03-29T02:01:20.260Z,95.30
2023-03-29T02:03:50.763Z,94.90
2023-03-29T02:06:21.720Z,94.61
2023-03-29T02:08:51.084Z,95.46
2023-03-29T02:11:19.309Z,94.21
2023-03-29T02:13:48.931Z,93.48
2023-03-29T02:16:17.391Z,94.27
2023-03-29T02:18:47.731Z,94.38
2023-03-29T02:21:18.190Z,92.09
2023-03-29T02:23:48.829Z,92.48
2023-03-29T02:26:17.731Z,93.37
2023-03-29T02:28:45.936Z,93.95
2023-03-29T02:31:18.846Z,94.44
2023-03-29T02:33:52.069Z,94.60
2023-03-29T02:36:24.902Z,93.33
2023-03-29T02:38:53.726Z,93.97
2023-03-29T02:41:23.666Z,95.14
2023-03-29T02:43:52.363Z,92.00
2023-03-29T02:46:22.104Z,92.70
2023-03-29T02:48:51.545Z,92.38
2023-03-29T02:51:21.353Z,90.72
2023-03-29T02:53:51.995Z,89.36
2023-03-29T02:56:20.333Z,89.39
2023-03-29T02:58:48.569Z,89.57
2023-03-29T03:01:17.624Z,89.11
2023-03-29T03:03:48.046Z,90.02
2023-03-29T03:06:16.295Z,87.83
2023-03-29T03:08:44.457Z,86.92
2023-03-29T03:11:12.763Z,85.64
2023-03-29T03:13:40.933Z,85.46
2023-03-29T03:16:09.522Z,84.36
2023-03-29T03:18:37.980Z,83.78
2023-03-29T03:21:07.817Z,82.91
2023-03-29T03:23:37.194Z,83.43
2023-03-29T03:26:05.657Z,82.49
2023-03-29T03:28:34.153Z,81.99
2023-03-29T03:31:02.457Z,81.28
2023-03-29T03:33:30.785Z,80.92
2023-03-29T03:36:02.646Z,80.83
2023-03-29T03:38:32.313Z,80.45
2023-03-29T03:41:01.469Z,81.24
2023-03-29T03:43:30.154Z,81.25
2023-03-29T03:45:58.508Z,81.07
2023-03-29T03:48:27.095Z,80.41
2023-03-29T03:50:55.959Z,79.58
2023-03-29T03:53:24.555Z,79.54
2023-03-29T03:55:56.051Z,78.53
2023-03-29T03:58:24.539Z,78.73
2023-03-29T04:00:52.736Z,78.76
2023-03-29T04:03:21.700Z,79.97
2023-03-29T04:05:49.998Z,80.11
2023-03-29T04:08:18.145Z,80.62
2023-03-29T04:10:52.467Z,81.71
2023-03-29T04:13:22.387Z,82.24
2023-03-29T04:15:54.107Z,83.66
2023-03-29T04:18:22.712Z,85.11
2023-03-29T04:20:51.659Z,86.81
2023-03-29T04:23:20.029Z,87.37
2023-03-29T04:25:48.183Z,88.77
2023-03-29T04:28:16.477Z,89.13
2023-03-29T04:30:48.081Z,90.43
2023-03-29T04:33:17.296Z,90.96
2023-03-29T04:35:47.105Z,92.19
2023-03-29T04:38:16.781Z,92.99
2023-03-29T04:40:44.953Z,93.52
2023-03-29T04:43:14.378Z,93.80
2023-03-29T04:45:43.127Z,94.54
2023-03-29T04:48:12.715Z,94.44
2023-03-29T04:50:41.408Z,94.21
2023-03-29T04:53:09.544Z,94.02
2023-03-29T04:55:37.874Z,94.13
2023-03-29T04:58:06.396Z,93.78
2023-03-29T05:00:34.980Z,93.97
2023-03-29T05:03:04.681Z,94.14
2023-03-29T05:05:34.468Z,93.84
2023-03-29T05:08:03.279Z,93.92
2023-03-29T05:10:31.588Z,92.84
2023-03-29T05:12:59.885Z,92.91
2023-03-29T05:15:28.226Z,93.14
2023-03-29T05:17:56.400Z,92.12
2023-03-29T05:20:24.888Z,91.75
2023-03-29T05:22:54.745Z,92.19
2023-03-29T05:25:23.301Z,91.27
2023-03-29T05:27:52.065Z,91.88
2023-03-29T05:30:20.598Z,92.06
2023-03-29T05:32:49.088Z,92.23
2023-03-29T05:35:17.372Z,92.90
2023-03-29T05:37:47.148Z,93.19
2023-03-29T05:40:16.756Z,94.23
2023-03-29T05:42:44.965Z,94.75
2023-03-29T05:45:15.460Z,95.73
2023-03-29T05:47:43.979Z,95.82
2023-03-29T05:50:12.657Z,96.25
2023-03-29T05:52:40.961Z,96.16
2023-03-29T05:55:10.303Z,96.73
2023-03-29T05:57:39.837Z,96.08
2023-03-29T06:00:16.897Z,96.39
2023-03-29T06:02:45.373Z,96.74
2023-03-29T06:05:14.747Z,96.39
2023-03-29T06:07:42.925Z,96.83
2023-03-29T06:10:11.675Z,96.34
2023-03-29T06:12:41.197Z,96.15
2023-03-29T06:15:10.150Z,95.96
2023-03-29T06:17:39.485Z,95.57
2023-03-29T06:20:10.720Z,95.18
2023-03-29T06:22:39.551Z,95.08
2023-03-29T06:25:09.201Z,94.85
2023-03-29T06:27:37.557Z,95.13
2023-03-29T06:30:08.041Z,94.11
2023-03-29T06:32:36.646Z,94.37
2023-03-29T06:35:05.765Z,94.45
2023-03-29T06:37:34.038Z,94.28
2023-03-29T06:40:06.756Z,93.76
2023-03-29T06:42:35.675Z,93.67
2023-03-29T06:45:04.225Z,92.36
2023-03-29T06:47:34.032Z,92.65
2023-03-29T06:50:02.176Z,93.05
2023-03-29T06:52:30.360Z,92.83
2023-03-29T06:55:01.667Z,91.44
2023-03-29T06:57:30.737Z,91.47
2023-03-29T06:59:58.848Z,90.61
2023-03-29T07:02:27.327Z,91.08
2023-03-29T07:04:57.364Z,91.20
2023-03-29T07:07:33.116Z,91.09
2023-03-29T07:10:01.765Z,89.77
2023-03-29T07:12:29.961Z,89.13
2023-03-29T07:14:58.444Z,88.24
2023-03-29T07:17:27.010Z,87.57
2023-03-29T07:19:55.166Z,86.50
2023-03-29T07:22:24.802Z,85.80
2023-03-29T07:24:54.656Z,84.57
2023-03-29T07:27:24.219Z,84.47
2023-03-29T07:29:52.770Z,83.77
2023-03-29T07:32:21.526Z,83.40
2023-03-29T07:34:49.854Z,82.29
2023-03-29T07:37:18.143Z,82.71
2023-03-29T07:39:47.744Z,81.95
2023-03-29T07:42:15.909Z,82.57
2023-03-29T07:44:44.105Z,81.89
2023-03-29T07:47:12.643Z,81.27
2023-03-29T07:49:41.654Z,82.10
2023-03-29T07:52:09.821Z,80.96
2023-03-29T07:54:38.138Z,80.75
2023-03-29T07:57:08.093Z,79.66
2023-03-29T07:59:36.564Z,79.52
2023-03-29T08:02:05.033Z,79.08
2023-03-29T08:04:33.470Z,77.84
2023-03-29T08:07:01.725Z,77.45
2023-03-29T08:09:29.988Z,77.13
2023-03-29T08:11:58.994Z,76.87
2023-03-29T08:14:28.716Z,76.67
2023-03-29T08:16:57.173Z,76.30
2023-03-29T08:19:25.697Z,75.86
2023-03-29T08:21:53.823Z,75.06
2023-03-29T08:24:22.312Z,74.76
2023-03-29T08:26:50.712Z,73.63
2023-03-29T08:29:18.813Z,72.99
2023-03-29T08:31:49.235Z,73.07
2023-03-29T08:34:17.430Z,73.50
2023-03-29T08:36:45.731Z,73.77
2023-03-29T08:39:13.951Z,73.29
2023-03-29T08:41:49.962Z,73.11
2023-03-29T08:44:26.542Z,73.54
2023-03-29T08:47:00.620Z,72.33
2023-03-29T08:49:29.755Z,71.93
2023-03-29T08:52:00.032Z,72.16
2023-03-29T08:54:29.947Z,72.74
2023-03-29T08:57:02.947Z,71.65
2023-03-29T08:59:32.976Z,71.81
2023-03-29T09:02:05.145Z,72.09
2023-03-29T09:04:35.572Z,72.09
2023-03-29T09:07:04.404Z,70.68
2023-03-29T09:09:33.855Z,70.96
2023-03-29T09:12:09.161Z,72.56
2023-03-29T09:14:43.656Z,73.58
2023-03-29T09:17:18.155Z,75.29
2023-03-29T09:19:49.605Z,76.42
2023-03-29T09:22:23.228Z,80.77
2023-03-29T09:24:59.904Z,84.01
2023-03-29T09:27:31.233Z,85.92
2023-03-29T09:30:04.658Z,87.82
2023-03-29T09:32:39.604Z,88.51
2023-03-29T09:35:14.334Z,89.64
2023-03-29T09:37:42.608Z,89.16
2023-03-29T09:40:12.924Z,89.99
2023-03-29T09:42:41.687Z,89.40
2023-03-29T09:45:10.616Z,89.23
2023-03-29T09:47:42.692Z,88.63
2023-03-29T09:50:27.351Z,88.18
2023-03-29T09:53:03.814Z,84.92
2023-03-29T09:55:34.007Z,83.97
2023-03-29T09:58:03.424Z,83.09
2023-03-29T10:00:31.911Z,81.34
2023-03-29T10:03:01.656Z,80.88
2023-03-29T10:05:31.899Z,80.53
2023-03-29T10:08:01.349Z,80.57
2023-03-29T10:10:30.776Z,80.81
2023-03-29T10:13:00.999Z,80.05
2023-03-29T10:15:30.683Z,79.20
2023-03-29T10:18:03.140Z,78.56
2023-03-29T10:20:31.556Z,76.71
2023-03-29T10:23:00.399Z,75.04
2023-03-29T10:25:29.927Z,75.27
2023-03-29T10:28:03.676Z,72.45
2023-03-29T10:30:34.818Z,71.67
2023-03-29T10:33:05.150Z,71.60
2023-03-29T10:35:35.762Z,71.35
2023-03-29T10:38:06.386Z,70.21
2023-03-29T10:40:36.686Z,69.98
2023-03-29T10:43:13.123Z,70.29
2023-03-29T10:45:42.509Z,69.95
2023-03-29T10:48:13.409Z,70.40
2023-03-29T10:50:42.757Z,72.24
2023-03-29T10:53:15.825Z,71.93
2023-03-29T10:55:47.755Z,74.06
2023-03-29T10:58:24.492Z,74.44
2023-03-29T11:00:56.236Z,74.38
2023-03-29T11:03:35.220Z,73.41
2023-03-29T11:06:11.246Z,72.87
2023-03-29T11:08:45.632Z,72.24
2023-03-29T11:11:26.345Z,72.02
2023-03-29T11:14:00.002Z,72.69
2023-03-29T11:16:32.997Z,72.84
2023-03-29T11:19:13.676Z,71.75
2023-03-29T11:21:48.142Z,67.99
2023-03-29T11:24:26.516Z,65.45
2023-03-29T11:27:01.261Z,64.69
2023-03-29T11:29:32.105Z,62.21
2023-03-29T11:32:05.338Z,59.92
2023-03-29T11:34:39.626Z,60.31
2023-03-29T11:37:13.566Z,61.67
2023-03-29T11:39:46.776Z,60.96
2023-03-29T11:42:17.665Z,60.29
2023-03-29T11:44:48.298Z,59.67
2023-03-29T11:47:19.636Z,58.19
2023-03-29T11:49:52.340Z,56.48
2023-03-29T11:52:23.492Z,52.25
2023-03-29T11:54:55.612Z,54.04
2023-03-29T11:57:27.435Z,57.17
2023-03-29T11:59:59.764Z,57.76
2023-03-29T12:02:33.596Z,56.86
2023-03-29T12:05:06.505Z,53.70
2023-03-29T12:07:37.784Z,51.12
2023-03-29T12:10:08.828Z,49.73
2023-03-29T12:12:41.835Z,44.37
2023-03-29T12:15:14.599Z,40.97
2023-03-29T12:17:44.904Z,37.81
2023-03-29T12:20:18.575Z,40.51
2023-03-29T12:22:48.952Z,46.69
2023-03-29T12:25:19.721Z,49.38
2023-03-29T12:28:24.174Z,51.66
2023-03-29T12:30:58.614Z,51.46
2023-03-29T12:33:44.889Z,49.19
2023-03-29T12:36:26.322Z,53.02
2023-03-29T12:38:54.690Z,53.63
2023-03-29T12:41:24.332Z,52.88
2023-03-29T12:43:52.547Z,50.16
2023-03-29T12:46:24.053Z,52.43
2023-03-29T12:48:55.463Z,53.74
2023-03-29T12:51:30.691Z,55.05
2023-03-29T12:54:07.241Z,55.79
2023-03-29T12:56:42.656Z,57.52
2023-03-29T12:59:25.551Z,57.25
2023-03-29T13:01:58.497Z,59.08
2023-03-29T13:04:36.204Z,59.37
2023-03-29T13:07:07.028Z,59.70
2023-03-29T13:09:37.446Z,61.93
2023-03-29T13:12:14.547Z,62.49
2023-03-29T13:14:44.614Z,63.17
2023-03-29T13:17:23.290Z,63.49
2023-03-29T13:19:57.905Z,64.38
2023-03-29T13:22:41.952Z,64.58
2023-03-29T13:25:16.942Z,63.57
2023-03-29T13:27:50.701Z,62.71
2023-03-29T13:30:22.997Z,60.65
2023-03-29T13:32:56.387Z,58.92
2023-03-29T13:35:32.766Z,58.31
2023-03-29T13:38:06.649Z,57.20
2023-03-29T13:40:43.813Z,56.15
2023-03-29T13:43:20.799Z,57.05
2023-03-29T13:46:04.046Z,58.55
2023-03-29T13:48:34.262Z,59.90
2023-03-29T13:51:08.018Z,60.35
2023-03-29T13:53:41.064Z,60.34
2023-03-29T13:56:12.013Z,60.96
2023-03-29T13:58:42.849Z,60.70
2023-03-29T14:01:13.051Z,61.28
2023-03-29T14:03:44.640Z,61.97
2023-03-29T14:06:18.724Z,62.89
2023-03-29T14:08:49.395Z,62.13
2023-03-29T14:11:22.968Z,58.58
2023-03-29T14:13:53.687Z,56.84
2023-03-29T14:16:22.548Z,54.91
2023-03-29T14:18:52.166Z,55.91
2023-03-29T14:21:22.609Z,55.03
2023-03-29T14:23:55.639Z,56.12
2023-03-29T14:26:25.635Z,57.84
2023-03-29T14:28:56.416Z,59.04
2023-03-29T14:31:27.307Z,59.71
2023-03-29T14:33:55.989Z,58.55
2023-03-29T14:36:25.052Z,58.70
2023-03-29T14:38:57.908Z,59.00
2023-03-29T14:41:31.951Z,59.80
2023-03-29T14:44:01.040Z,60.52
2023-03-29T14:46:29.602Z,60.53
2023-03-29T14:48:58.325Z,60.27
2023-03-29T14:51:30.177Z,59.85
2023-03-29T14:54:00.203Z,58.95
2023-03-29T14:56:32.686Z,58.22
2023-03-29T14:59:02.526Z,58.48
2023-03-29T15:01:31.231Z,59.14
2023-03-29T15:04:03.893Z,59.66
2023-03-29T15:06:33.549Z,59.57
2023-03-29T15:09:06.550Z,59.34
2023-03-29T15:11:35.111Z,59.66
2023-03-29T15:14:04.828Z,60.30
2023-03-29T15:16:33.309Z,60.95
2023-03-29T15:19:02.402Z,61.08
2023-03-29T15:21:36.463Z,60.86
2023-03-29T15:24:06.529Z,61.06
2023-03-29T15:26:36.080Z,61.44
2023-03-29T15:31:37.890Z,61.77
2023-03-29T15:34:10.883Z,61.97
2023-03-29T15:36:42.527Z,62.14
2023-03-29T15:39:13.722Z,61.96
2023-03-29T15:41:42.307Z,61.35
2023-03-29T15:44:10.780Z,60.77
2023-03-29T15:46:39.387Z,60.74
2023-03-29T15:49:11.562Z,61.01
2023-03-29T15:51:39.985Z,61.51
2023-03-29T15:54:09.219Z,61.70
2023-03-29T15:56:43.708Z,62.41
2023-03-29T15:59:15.289Z,63.05
2023-03-29T16:01:43.714Z,63.14
2023-03-29T16:04:13.898Z,62.98
2023-03-29T16:06:42.204Z,62.74
2023-03-29T16:09:11.884Z,62.84
2023-03-29T16:11:42.738Z,62.77
2023-03-29T16:14:17.382Z,62.50
2023-03-29T16:16:45.922Z,63.00
2023-03-29T16:19:14.273Z,63.05
2023-03-29T16:21:43.478Z,63.15
2023-03-29T16:24:14.728Z,62.97
2023-03-29T16:26:44.581Z,62.98
2023-03-29T16:29:12.883Z,63.06
2023-03-29T16:31:41.606Z,62.13
2023-03-29T16:34:10.750Z,62.24
2023-03-29T16:36:39.179Z,61.57
2023-03-29T16:39:07.851Z,61.64
2023-03-29T16:41:37.440Z,61.53
2023-03-29T16:44:07.296Z,61.93
2023-03-29T16:46:35.837Z,61.90
2023-03-29T16:49:07.928Z,62.82
2023-03-29T16:51:36.271Z,63.27
2023-03-29T16:54:07.421Z,64.20
2023-03-29T16:56:36.757Z,64.59
2023-03-29T16:59:05.076Z,64.78
2023-03-29T17:01:34.835Z,64.74
2023-03-29T17:04:03.517Z,64.71
2023-03-29T17:06:32.828Z,64.82
2023-03-29T17:09:01.410Z,65.20
2023-03-29T17:11:29.866Z,65.25
2023-03-29T17:13:58.518Z,65.42
2023-03-29T17:16:28.864Z,65.41
2023-03-29T17:19:00.603Z,65.25
2023-03-29T17:21:29.548Z,65.13
2023-03-29T17:23:59.574Z,65.43
2023-03-29T17:26:28.204Z,65.61
2023-03-29T17:28:56.672Z,65.98
2023-03-29T17:31:24.883Z,66.04
2023-03-29T17:33:53.533Z,65.87
2023-03-29T17:36:28.250Z,65.92
2023-03-29T17:39:20.097Z,65.67
2023-03-29T17:41:49.344Z,65.84
2023-03-29T17:44:19.199Z,65.74
2023-03-29T17:46:48.894Z,66.16
2023-03-29T17:49:17.188Z,65.86
2023-03-29T17:51:47.305Z,65.85
2023-03-29T17:54:16.286Z,66.00
2023-03-29T17:56:44.812Z,65.76
2023-03-29T17:59:14.126Z,65.99
2023-03-29T18:01:42.366Z,66.18
2023-03-29T18:04:10.694Z,66.38
2023-03-29T18:06:38.924Z,66.36
2023-03-29T18:09:09.928Z,66.42
2023-03-29T18:11:39.014Z,66.30
2023-03-29T18:14:07.435Z,66.55
2023-03-29T18:16:36.026Z,66.64
2023-03-29T18:19:04.727Z,67.07
2023-03-29T18:21:33.547Z,67.03
2023-03-29T18:24:01.772Z,66.85
2023-03-29T18:26:32.670Z,66.80
2023-03-29T18:29:01.970Z,66.89
2023-03-29T18:31:33.188Z,66.83
2023-03-29T18:34:03.549Z,66.71
2023-03-29T18:36:32.328Z,67.08
2023-03-29T18:39:05.769Z,67.27
2023-03-29T18:41:37.196Z,67.25
2023-03-29T18:44:07.760Z,67.64
2023-03-29T18:46:36.251Z,67.86
2023-03-29T18:49:08.122Z,67.88
2023-03-29T18:51:38.128Z,68.00
2023-03-29T18:54:08.644Z,68.03
2023-03-29T18:56:38.310Z,68.05
2023-03-29T18:59:06.871Z,68.30
2023-03-29T19:01:35.382Z,68.36
2023-03-29T19:04:03.690Z,68.45
2023-03-29T19:06:32.122Z,68.39
2023-03-29T19:09:01.982Z,69.00
2023-03-29T19:11:30.514Z,69.13
2023-03-29T19:14:02.913Z,69.69
2023-03-29T19:16:31.053Z,69.42
2023-03-29T19:19:01.473Z,69.50
2023-03-29T19:21:31.577Z,70.09
2023-03-29T19:24:02.558Z,70.53
2023-03-29T19:26:33.108Z,70.96
2023-03-29T19:29:03.121Z,71.20
2023-03-29T19:31:33.625Z,71.65
2023-03-29T19:34:02.212Z,72.22
2023-03-29T19:36:30.857Z,72.24
2023-03-29T19:38:59.380Z,72.44
2023-03-29T19:41:28.177Z,72.52
2023-03-29T19:43:56.617Z,73.05
2023-03-29T19:46:30.370Z,73.19
2023-03-29T19:48:59.675Z,73.74
2023-03-29T19:51:28.244Z,73.91
2023-03-29T19:53:57.016Z,74.84
2023-03-29T19:56:26.587Z,74.62
2023-03-29T19:58:54.821Z,74.93
2023-03-29T20:01:27.160Z,75.51
2023-03-29T20:03:56.893Z,75.42
2023-03-29T20:06:25.761Z,75.67
2023-03-29T20:08:54.054Z,75.83
2023-03-29T20:11:24.693Z,76.63
2023-03-29T20:13:53.250Z,77.05
2023-03-29T20:16:26.044Z,77.47
2023-03-29T20:18:56.366Z,77.97
2023-03-29T20:21:26.006Z,78.10
2023-03-29T20:23:54.176Z,78.57
2023-03-29T20:26:22.464Z,78.89
2023-03-29T20:28:51.009Z,78.27
2023-03-29T20:31:19.619Z,77.80
2023-03-29T20:33:48.010Z,78.10
2023-03-29T20:36:18.367Z,77.31
2023-03-29T20:38:48.296Z,77.46
2023-03-29T20:41:16.549Z,76.86
2023-03-29T20:43:46.124Z,77.00
2023-03-29T20:46:18.558Z,77.14
2023-03-29T20:48:56.916Z,77.38
2023-03-29T20:51:28.235Z,77.39
2023-03-29T20:54:02.569Z,77.60
2023-03-29T20:56:32.302Z,78.06
2023-03-29T20:59:00.551Z,78.30
2023-03-29T21:01:29.572Z,78.39
2023-03-29T21:03:58.114Z,77.97
2023-03-29T21:06:26.372Z,78.25
2023-03-29T21:08:54.569Z,78.59
2023-03-29T21:11:24.159Z,78.53
2023-03-29T21:13:53.840Z,78.93
2023-03-29T21:16:22.173Z,79.09
2023-03-29T21:18:50.483Z,78.77
2023-03-29T21:21:19.038Z,78.96
2023-03-29T21:23:47.504Z,79.35
2023-03-29T21:26:16.083Z,79.14
2023-03-29T21:28:46.006Z,79.91
2023-03-29T21:31:14.355Z,80.24
2023-03-29T21:33:42.632Z,80.06
2023-03-29T21:36:12.258Z,80.27
2023-03-29T21:38:40.394Z,80.95
2023-03-29T21:41:10.735Z,80.92
2023-03-29T21:43:38.914Z,80.64
2023-03-29T21:46:09.618Z,80.64
2023-03-29T21:48:38.200Z,80.72
2023-03-29T21:51:07.010Z,80.54
2023-03-29T21:53:36.118Z,81.18
2023-03-29T21:56:04.838Z,80.76
2023-03-29T21:58:33.204Z,81.43
2023-03-29T22:01:03.649Z,81.21
2023-03-29T22:03:33.812Z,82.30
2023-03-29T22:06:02.760Z,82.26
2023-03-29T22:08:31.474Z,82.80
2023-03-29T22:11:08.178Z,82.82
2023-03-29T22:13:37.125Z,82.60
2023-03-29T22:16:06.347Z,82.47
2023-03-29T22:18:43.172Z,82.17
2023-03-29T22:21:14.090Z,82.48
2023-03-29T22:23:42.777Z,82.90
2023-03-29T22:26:12.070Z,83.26
2023-03-29T22:28:40.841Z,83.34
2023-03-29T22:31:10.638Z,83.55
2023-03-29T22:33:40.653Z,83.62
2023-03-29T22:36:13.304Z,83.50
2023-03-29T22:38:41.569Z,82.63
2023-03-29T22:41:09.814Z,82.61
2023-03-29T22:43:38.547Z,82.77
2023-03-29T22:46:07.530Z,82.60
2023-03-29T22:48:37.310Z,82.91
2023-03-29T22:51:07.097Z,81.18
2023-03-29T22:53:35.266Z,81.11
2023-03-29T22:56:03.800Z,81.93
2023-03-29T22:58:32.006Z,81.66
2023-03-29T23:01:00.306Z,81.39
2023-03-29T23:03:28.617Z,81.58
2023-03-29T23:05:57.819Z,81.63
2023-03-29T23:08:27.341Z,82.42
2023-03-29T23:10:55.634Z,82.82
2023-03-29T23:13:25.816Z,81.66
2023-03-29T23:15:55.335Z,80.87
2023-03-29T23:18:23.676Z,81.05
2023-03-29T23:20:54.750Z,80.07
2023-03-29T23:23:23.834Z,79.71
2023-03-29T23:25:53.920Z,77.93
2023-03-29T23:28:23.533Z,77.04
2023-03-29T23:30:56.019Z,76.68
2023-03-29T23:33:26.154Z,75.44
2023-03-29T23:35:54.547Z,75.24
2023-03-29T23:38:23.064Z,75.08
2023-03-29T23:40:58.960Z,76.17
2023-03-29T23:43:31.697Z,75.68
2023-03-29T23:46:01.106Z,74.78
2023-03-29T23:48:29.299Z,72.62
2023-03-29T23:50:57.788Z,71.47
2023-03-29T23:53:29.186Z,69.87
2023-03-29T23:56:00.229Z,68.87
2023-03-29T23:58:28.741Z,68.05
